AGR9050 EGTK-EGNH
Flight info
| Callsign | AGR9050 |
|---|---|
| Flight time | N/A |
| Altitude | 18000 |
| Route | IXURA DTY Y53 SAPCO N57 POL |
| Aircraft | E145/M-SABDFGRW/S |
Departure
| Time | 2026-04-25 18:20 |
|---|---|
| Airport | London Oxford Airport (EGTK) |
Arrival
| Time | N/A |
|---|---|
| Airport | Blackpool Airport (EGNH) |
| Time | Latitude | Longitude | Altitude | Speed | Heading |
|---|---|---|---|---|---|
| 2026-04-25 18:05 | 51.83423 | -1.31645 | 257 ft | 0 kts | 316° |
| 2026-04-25 18:16 | 51.83424 | -1.31648 | 258 ft | 0 kts | 316° |
| 2026-04-25 18:16 | 51.83423 | -1.31676 | 258 ft | 3 kts | 199° |
| 2026-04-25 18:17 | 51.83392 | -1.31649 | 258 ft | 7 kts | 151° |
| 2026-04-25 18:17 | 51.83328 | -1.31646 | 257 ft | 10 kts | 187° |
| 2026-04-25 18:17 | 51.83245 | -1.31635 | 257 ft | 14 kts | 155° |
| 2026-04-25 18:17 | 51.83159 | -1.31569 | 255 ft | 14 kts | 154° |
| 2026-04-25 18:18 | 51.83081 | -1.31525 | 255 ft | 9 kts | 184° |
| 2026-04-25 18:18 | 51.83027 | -1.31608 | 255 ft | 12 kts | 256° |
| 2026-04-25 18:18 | 51.83010 | -1.31761 | 256 ft | 14 kts | 260° |
| 2026-04-25 18:18 | 51.82993 | -1.31933 | 258 ft | 16 kts | 262° |
| 2026-04-25 18:19 | 51.82993 | -1.32110 | 260 ft | 15 kts | 286° |
| 2026-04-25 18:19 | 51.83038 | -1.32189 | 261 ft | 10 kts | 353° |
| 2026-04-25 18:19 | 51.83120 | -1.32170 | 261 ft | 14 kts | 11° |
| 2026-04-25 18:19 | 51.83387 | -1.32090 | 263 ft | 80 kts | 11° |
| 2026-04-25 18:20 | 51.84179 | -1.31844 | 408 ft | 136 kts | 11° |
| 2026-04-25 18:20 | 51.85171 | -1.31826 | 1045 ft | 151 kts | 347° |
| 2026-04-25 18:20 | 51.86103 | -1.32315 | 2062 ft | 139 kts | 343° |
| 2026-04-25 18:20 | 51.87027 | -1.32826 | 2853 ft | 145 kts | 343° |
| 2026-04-25 18:21 | 51.87970 | -1.33352 | 3648 ft | 149 kts | 343° |
| 2026-04-25 18:21 | 51.88952 | -1.33885 | 4461 ft | 146 kts | 345° |
| 2026-04-25 18:21 | 51.89928 | -1.34373 | 4907 ft | 165 kts | 344° |
| 2026-04-25 18:21 | 51.91179 | -1.34997 | 4965 ft | 208 kts | 344° |
| 2026-04-25 18:22 | 51.92496 | -1.35652 | 5063 ft | 244 kts | 344° |
| 2026-04-25 18:22 | 51.93115 | -1.35960 | 5369 ft | 247 kts | 343° |
| 2026-04-25 18:22 | 51.95831 | -1.37304 | 7096 ft | 244 kts | 345° |
| 2026-04-25 18:22 | 51.97493 | -1.37328 | 7927 ft | 249 kts | 16° |
| 2026-04-25 18:23 | 51.99078 | -1.36103 | 8606 ft | 262 kts | 27° |
| 2026-04-25 18:23 | 52.00710 | -1.34482 | 9024 ft | 284 kts | 36° |
| 2026-04-25 18:23 | 52.02284 | -1.32553 | 9876 ft | 287 kts | 38° |
| 2026-04-25 18:23 | 52.03826 | -1.30509 | 10733 ft | 290 kts | 38° |
| 2026-04-25 18:24 | 52.05377 | -1.28432 | 11497 ft | 294 kts | 38° |
| 2026-04-25 18:24 | 52.06934 | -1.26339 | 12293 ft | 298 kts | 38° |
| 2026-04-25 18:24 | 52.08535 | -1.24184 | 13031 ft | 303 kts | 38° |
| 2026-04-25 18:24 | 52.10246 | -1.21881 | 13085 ft | 332 kts | 38° |
| 2026-04-25 18:25 | 52.11770 | -1.19825 | 13087 ft | 353 kts | 38° |
| 2026-04-25 18:25 | 52.13436 | -1.17575 | 13370 ft | 365 kts | 38° |
| 2026-04-25 18:25 | 52.15091 | -1.15349 | 13902 ft | 366 kts | 37° |
| 2026-04-25 18:25 | 52.18397 | -1.13037 | 14779 ft | 365 kts | 6° |
| 2026-04-25 18:26 | 52.20031 | -1.13053 | 15165 ft | 364 kts | 351° |
| 2026-04-25 18:26 | 52.22414 | -1.14136 | 15750 ft | 364 kts | 341° |
| 2026-04-25 18:26 | 52.24829 | -1.15502 | 16311 ft | 367 kts | 339° |
| 2026-04-25 18:26 | 52.27945 | -1.17545 | 17041 ft | 369 kts | 336° |
| 2026-04-25 18:27 | 52.29494 | -1.18611 | 17397 ft | 371 kts | 336° |
| 2026-04-25 18:27 | 52.31769 | -1.20185 | 17882 ft | 373 kts | 336° |
| 2026-04-25 18:27 | 52.34159 | -1.21841 | 18169 ft | 383 kts | 336° |
| 2026-04-25 18:27 | 52.37363 | -1.24064 | 18176 ft | 378 kts | 336° |
| 2026-04-25 18:28 | 52.39668 | -1.25666 | 18184 ft | 379 kts | 336° |
| 2026-04-25 18:28 | 52.41295 | -1.26798 | 18188 ft | 379 kts | 336° |
| 2026-04-25 18:28 | 52.43714 | -1.28484 | 18182 ft | 380 kts | 336° |
| 2026-04-25 18:29 | 52.48990 | -1.32166 | 18204 ft | 377 kts | 336° |
| 2026-04-25 18:29 | 52.50650 | -1.33326 | 18183 ft | 377 kts | 336° |
| 2026-04-25 18:30 | 52.52235 | -1.34435 | 18185 ft | 377 kts | 336° |